sensor_id;sensor_type;location;lat;lon;timestamp;temperature;humidity
820;DHT22;392;48.838;2.322;2023-06-19T00:01:15;20.80;67.90
820;DHT22;392;48.838;2.322;2023-06-19T00:03:42;20.70;68.40
820;DHT22;392;48.838;2.322;2023-06-19T00:06:09;20.70;69.00
820;DHT22;392;48.838;2.322;2023-06-19T00:08:38;20.70;68.90
820;DHT22;392;48.838;2.322;2023-06-19T00:11:07;20.70;69.00
820;DHT22;392;48.838;2.322;2023-06-19T00:13:34;20.70;68.20
820;DHT22;392;48.838;2.322;2023-06-19T00:16:03;20.90;67.50
820;DHT22;392;48.838;2.322;2023-06-19T00:18:30;20.70;68.20
820;DHT22;392;48.838;2.322;2023-06-19T00:21:06;20.80;68.30
820;DHT22;392;48.838;2.322;2023-06-19T00:23:33;20.80;67.70
820;DHT22;392;48.838;2.322;2023-06-19T00:26:01;20.80;68.60
820;DHT22;392;48.838;2.322;2023-06-19T00:28:29;20.90;66.70
820;DHT22;392;48.838;2.322;2023-06-19T00:30:56;21.00;65.90
820;DHT22;392;48.838;2.322;2023-06-19T00:33:25;20.90;66.30
820;DHT22;392;48.838;2.322;2023-06-19T00:35:52;20.90;65.80
820;DHT22;392;48.838;2.322;2023-06-19T00:38:21;20.80;66.50
820;DHT22;392;48.838;2.322;2023-06-19T00:40:49;20.80;67.30
820;DHT22;392;48.838;2.322;2023-06-19T00:43:16;20.70;67.50
820;DHT22;392;48.838;2.322;2023-06-19T00:45:44;20.60;70.20
820;DHT22;392;48.838;2.322;2023-06-19T00:48:11;20.50;70.30
820;DHT22;392;48.838;2.322;2023-06-19T00:50:40;20.30;72.40
820;DHT22;392;48.838;2.322;2023-06-19T00:53:07;20.30;72.70
820;DHT22;392;48.838;2.322;2023-06-19T00:55:35;20.20;72.90
820;DHT22;392;48.838;2.322;2023-06-19T00:58:03;20.20;74.70
820;DHT22;392;48.838;2.322;2023-06-19T01:00:30;20.30;74.20
820;DHT22;392;48.838;2.322;2023-06-19T01:02:58;20.20;74.10
820;DHT22;392;48.838;2.322;2023-06-19T01:05:28;20.20;75.40
820;DHT22;392;48.838;2.322;2023-06-19T01:08:00;20.10;75.50
820;DHT22;392;48.838;2.322;2023-06-19T01:10:33;20.10;77.00
820;DHT22;392;48.838;2.322;2023-06-19T01:13:08;20.10;75.20
820;DHT22;392;48.838;2.322;2023-06-19T01:15:38;20.10;76.20
820;DHT22;392;48.838;2.322;2023-06-19T01:18:08;20.20;74.80
820;DHT22;392;48.838;2.322;2023-06-19T01:20:37;20.10;74.80
820;DHT22;392;48.838;2.322;2023-06-19T01:23:07;20.00;76.40
820;DHT22;392;48.838;2.322;2023-06-19T01:25:35;19.90;76.60
820;DHT22;392;48.838;2.322;2023-06-19T01:28:03;19.90;78.10
820;DHT22;392;48.838;2.322;2023-06-19T01:30:32;20.00;77.80
820;DHT22;392;48.838;2.322;2023-06-19T01:33:06;20.00;76.90
820;DHT22;392;48.838;2.322;2023-06-19T01:35:40;20.00;76.60
820;DHT22;392;48.838;2.322;2023-06-19T01:38:11;20.00;76.80
820;DHT22;392;48.838;2.322;2023-06-19T01:40:40;19.70;79.20
820;DHT22;392;48.838;2.322;2023-06-19T01:43:10;19.60;81.60
820;DHT22;392;48.838;2.322;2023-06-19T01:45:38;19.70;81.70
820;DHT22;392;48.838;2.322;2023-06-19T01:48:05;19.90;81.10
820;DHT22;392;48.838;2.322;2023-06-19T01:50:33;19.90;78.70
820;DHT22;392;48.838;2.322;2023-06-19T01:53:00;19.90;79.00
820;DHT22;392;48.838;2.322;2023-06-19T01:55:29;19.90;77.90
820;DHT22;392;48.838;2.322;2023-06-19T01:57:57;19.80;78.90
820;DHT22;392;48.838;2.322;2023-06-19T02:00:24;19.70;78.70
820;DHT22;392;48.838;2.322;2023-06-19T02:02:51;19.60;80.90
820;DHT22;392;48.838;2.322;2023-06-19T02:05:19;19.50;80.80
820;DHT22;392;48.838;2.322;2023-06-19T02:07:46;19.50;80.60
820;DHT22;392;48.838;2.322;2023-06-19T02:10:15;19.50;81.40
820;DHT22;392;48.838;2.322;2023-06-19T02:12:44;19.50;82.70
820;DHT22;392;48.838;2.322;2023-06-19T02:15:11;19.70;81.70
820;DHT22;392;48.838;2.322;2023-06-19T02:17:39;19.70;79.60
820;DHT22;392;48.838;2.322;2023-06-19T02:20:09;19.60;79.40
820;DHT22;392;48.838;2.322;2023-06-19T02:22:37;19.60;80.50
820;DHT22;392;48.838;2.322;2023-06-19T02:25:06;19.60;80.90
820;DHT22;392;48.838;2.322;2023-06-19T02:27:33;19.60;80.10
820;DHT22;392;48.838;2.322;2023-06-19T02:30:02;19.70;80.10
820;DHT22;392;48.838;2.322;2023-06-19T02:32:31;19.80;77.70
820;DHT22;392;48.838;2.322;2023-06-19T02:34:58;19.70;77.40
820;DHT22;392;48.838;2.322;2023-06-19T02:37:26;19.70;79.00
820;DHT22;392;48.838;2.322;2023-06-19T02:39:53;19.70;78.60
820;DHT22;392;48.838;2.322;2023-06-19T02:42:20;19.60;78.80
820;DHT22;392;48.838;2.322;2023-06-19T02:44:47;19.60;78.90
820;DHT22;392;48.838;2.322;2023-06-19T02:47:16;19.60;79.00
820;DHT22;392;48.838;2.322;2023-06-19T02:49:44;19.70;78.40
820;DHT22;392;48.838;2.322;2023-06-19T02:52:12;19.60;77.90
820;DHT22;392;48.838;2.322;2023-06-19T02:54:39;19.50;80.30
820;DHT22;392;48.838;2.322;2023-06-19T02:57:08;19.50;79.40
820;DHT22;392;48.838;2.322;2023-06-19T02:59:35;19.60;79.30
820;DHT22;392;48.838;2.322;2023-06-19T03:02:03;19.70;79.00
820;DHT22;392;48.838;2.322;2023-06-19T03:04:32;19.70;77.50
820;DHT22;392;48.838;2.322;2023-06-19T03:06:59;19.90;78.90
820;DHT22;392;48.838;2.322;2023-06-19T03:09:28;20.00;74.50
820;DHT22;392;48.838;2.322;2023-06-19T03:11:56;20.00;74.30
820;DHT22;392;48.838;2.322;2023-06-19T03:14:23;19.90;74.60
820;DHT22;392;48.838;2.322;2023-06-19T03:16:50;19.90;74.50
820;DHT22;392;48.838;2.322;2023-06-19T03:19:17;19.90;74.80
820;DHT22;392;48.838;2.322;2023-06-19T03:21:46;20.00;74.10
820;DHT22;392;48.838;2.322;2023-06-19T03:24:14;19.90;74.50
820;DHT22;392;48.838;2.322;2023-06-19T03:26:42;19.90;74.80
820;DHT22;392;48.838;2.322;2023-06-19T03:29:09;19.90;75.00
820;DHT22;392;48.838;2.322;2023-06-19T03:31:51;19.90;75.20
820;DHT22;392;48.838;2.322;2023-06-19T03:34:19;19.90;74.30
820;DHT22;392;48.838;2.322;2023-06-19T03:36:49;19.80;75.70
820;DHT22;392;48.838;2.322;2023-06-19T03:39:16;19.70;76.10
820;DHT22;392;48.838;2.322;2023-06-19T03:41:43;19.80;77.50
820;DHT22;392;48.838;2.322;2023-06-19T03:44:11;20.10;79.10
820;DHT22;392;48.838;2.322;2023-06-19T03:46:38;20.40;72.60
820;DHT22;392;48.838;2.322;2023-06-19T03:49:05;20.40;69.40
820;DHT22;392;48.838;2.322;2023-06-19T03:51:35;20.20;70.00
820;DHT22;392;48.838;2.322;2023-06-19T03:54:04;20.00;73.40
820;DHT22;392;48.838;2.322;2023-06-19T03:56:31;19.90;72.10
820;DHT22;392;48.838;2.322;2023-06-19T03:58:58;19.70;75.10
820;DHT22;392;48.838;2.322;2023-06-19T04:01:25;19.70;76.50
820;DHT22;392;48.838;2.322;2023-06-19T04:03:53;19.60;75.60
820;DHT22;392;48.838;2.322;2023-06-19T04:06:22;19.70;76.90
820;DHT22;392;48.838;2.322;2023-06-19T04:08:49;19.70;75.40
820;DHT22;392;48.838;2.322;2023-06-19T04:11:18;19.50;77.30
820;DHT22;392;48.838;2.322;2023-06-19T04:13:46;19.50;78.00
820;DHT22;392;48.838;2.322;2023-06-19T04:16:13;19.40;78.70
820;DHT22;392;48.838;2.322;2023-06-19T04:18:41;19.40;79.00
820;DHT22;392;48.838;2.322;2023-06-19T04:21:09;19.40;78.40
820;DHT22;392;48.838;2.322;2023-06-19T04:23:38;19.40;80.00
820;DHT22;392;48.838;2.322;2023-06-19T04:26:05;19.40;78.70
820;DHT22;392;48.838;2.322;2023-06-19T04:28:34;19.40;79.00
820;DHT22;392;48.838;2.322;2023-06-19T04:31:01;19.50;78.60
820;DHT22;392;48.838;2.322;2023-06-19T04:33:28;19.50;77.10
820;DHT22;392;48.838;2.322;2023-06-19T04:35:56;19.40;78.00
820;DHT22;392;48.838;2.322;2023-06-19T04:38:23;19.40;76.70
820;DHT22;392;48.838;2.322;2023-06-19T04:40:51;19.40;78.00
820;DHT22;392;48.838;2.322;2023-06-19T04:43:18;19.60;76.30
820;DHT22;392;48.838;2.322;2023-06-19T04:45:47;19.70;75.10
820;DHT22;392;48.838;2.322;2023-06-19T04:48:14;19.80;76.00
820;DHT22;392;48.838;2.322;2023-06-19T04:50:42;19.90;74.60
820;DHT22;392;48.838;2.322;2023-06-19T04:53:09;20.10;72.90
820;DHT22;392;48.838;2.322;2023-06-19T04:55:37;20.10;71.10
820;DHT22;392;48.838;2.322;2023-06-19T04:58:04;19.90;71.90
820;DHT22;392;48.838;2.322;2023-06-19T05:00:32;19.90;73.10
820;DHT22;392;48.838;2.322;2023-06-19T05:03:00;19.80;73.50
820;DHT22;392;48.838;2.322;2023-06-19T05:05:28;19.70;74.80
820;DHT22;392;48.838;2.322;2023-06-19T05:07:55;19.80;75.80
820;DHT22;392;48.838;2.322;2023-06-19T05:10:22;19.90;73.30
820;DHT22;392;48.838;2.322;2023-06-19T05:12:50;19.90;72.60
820;DHT22;392;48.838;2.322;2023-06-19T05:15:17;19.80;73.00
820;DHT22;392;48.838;2.322;2023-06-19T05:17:44;19.80;74.00
820;DHT22;392;48.838;2.322;2023-06-19T05:20:13;19.90;72.70
820;DHT22;392;48.838;2.322;2023-06-19T05:22:41;19.80;72.40
820;DHT22;392;48.838;2.322;2023-06-19T05:25:09;19.90;76.10
820;DHT22;392;48.838;2.322;2023-06-19T05:27:36;20.40;78.20
820;DHT22;392;48.838;2.322;2023-06-19T05:30:04;20.60;66.90
820;DHT22;392;48.838;2.322;2023-06-19T05:32:32;20.60;65.70
820;DHT22;392;48.838;2.322;2023-06-19T05:34:59;20.70;65.90
820;DHT22;392;48.838;2.322;2023-06-19T05:37:28;20.80;65.60
820;DHT22;392;48.838;2.322;2023-06-19T05:39:55;21.10;63.70
820;DHT22;392;48.838;2.322;2023-06-19T05:42:23;21.30;62.30
820;DHT22;392;48.838;2.322;2023-06-19T05:44:50;21.40;59.30
820;DHT22;392;48.838;2.322;2023-06-19T05:47:17;21.30;60.50
820;DHT22;392;48.838;2.322;2023-06-19T05:49:47;21.30;59.70
820;DHT22;392;48.838;2.322;2023-06-19T05:52:14;21.50;58.70
820;DHT22;392;48.838;2.322;2023-06-19T05:54:43;21.60;58.10
820;DHT22;392;48.838;2.322;2023-06-19T05:57:10;21.70;56.90
820;DHT22;392;48.838;2.322;2023-06-19T05:59:38;21.80;55.70
820;DHT22;392;48.838;2.322;2023-06-19T06:02:07;21.90;55.00
820;DHT22;392;48.838;2.322;2023-06-19T06:04:34;21.80;54.80
820;DHT22;392;48.838;2.322;2023-06-19T06:07:02;21.70;56.10
820;DHT22;392;48.838;2.322;2023-06-19T06:09:30;21.70;56.20
820;DHT22;392;48.838;2.322;2023-06-19T06:12:00;21.70;56.40
820;DHT22;392;48.838;2.322;2023-06-19T06:14:27;21.70;56.10
820;DHT22;392;48.838;2.322;2023-06-19T06:16:54;21.70;57.20
820;DHT22;392;48.838;2.322;2023-06-19T06:19:22;21.80;57.40
820;DHT22;392;48.838;2.322;2023-06-19T06:21:49;22.00;55.60
820;DHT22;392;48.838;2.322;2023-06-19T06:24:17;22.40;54.10
820;DHT22;392;48.838;2.322;2023-06-19T06:26:44;22.60;51.70
820;DHT22;392;48.838;2.322;2023-06-19T06:29:13;22.40;51.20
820;DHT22;392;48.838;2.322;2023-06-19T06:31:40;22.10;52.20
820;DHT22;392;48.838;2.322;2023-06-19T06:34:08;22.00;54.20
820;DHT22;392;48.838;2.322;2023-06-19T06:36:35;21.80;56.40
820;DHT22;392;48.838;2.322;2023-06-19T06:39:03;21.70;58.30
820;DHT22;392;48.838;2.322;2023-06-19T06:41:30;21.70;58.80
820;DHT22;392;48.838;2.322;2023-06-19T06:43:57;22.00;59.40
820;DHT22;392;48.838;2.322;2023-06-19T06:46:26;22.30;55.30
820;DHT22;392;48.838;2.322;2023-06-19T06:48:54;22.50;53.70
820;DHT22;392;48.838;2.322;2023-06-19T06:51:21;22.60;51.80
820;DHT22;392;48.838;2.322;2023-06-19T06:53:50;22.70;52.80
820;DHT22;392;48.838;2.322;2023-06-19T06:56:17;23.00;50.40
820;DHT22;392;48.838;2.322;2023-06-19T06:58:45;23.20;50.00
820;DHT22;392;48.838;2.322;2023-06-19T07:01:13;23.60;48.10
820;DHT22;392;48.838;2.322;2023-06-19T07:03:41;24.00;44.60
820;DHT22;392;48.838;2.322;2023-06-19T07:06:09;24.10;43.30
820;DHT22;392;48.838;2.322;2023-06-19T07:08:36;24.00;41.80
820;DHT22;392;48.838;2.322;2023-06-19T07:11:06;24.00;44.00
820;DHT22;392;48.838;2.322;2023-06-19T07:13:33;24.20;42.90
820;DHT22;392;48.838;2.322;2023-06-19T07:16:01;24.40;40.80
820;DHT22;392;48.838;2.322;2023-06-19T07:18:30;24.20;41.60
820;DHT22;392;48.838;2.322;2023-06-19T07:21:00;24.30;42.00
820;DHT22;392;48.838;2.322;2023-06-19T07:23:28;24.30;40.60
820;DHT22;392;48.838;2.322;2023-06-19T07:25:55;24.40;41.50
820;DHT22;392;48.838;2.322;2023-06-19T07:28:23;24.20;40.60
820;DHT22;392;48.838;2.322;2023-06-19T07:30:50;24.00;40.90
820;DHT22;392;48.838;2.322;2023-06-19T07:33:18;23.90;43.40
820;DHT22;392;48.838;2.322;2023-06-19T07:35:45;23.90;41.70
820;DHT22;392;48.838;2.322;2023-06-19T07:38:13;23.70;43.10
820;DHT22;392;48.838;2.322;2023-06-19T07:40:42;23.70;42.80
820;DHT22;392;48.838;2.322;2023-06-19T07:43:09;23.50;44.10
820;DHT22;392;48.838;2.322;2023-06-19T07:45:36;23.50;44.90
820;DHT22;392;48.838;2.322;2023-06-19T07:48:04;23.40;45.20
820;DHT22;392;48.838;2.322;2023-06-19T07:50:31;23.50;47.10
820;DHT22;392;48.838;2.322;2023-06-19T07:52:58;24.20;43.90
820;DHT22;392;48.838;2.322;2023-06-19T07:55:27;25.20;37.70
820;DHT22;392;48.838;2.322;2023-06-19T07:57:55;25.50;35.90
820;DHT22;392;48.838;2.322;2023-06-19T08:00:23;25.60;34.50
820;DHT22;392;48.838;2.322;2023-06-19T08:02:51;25.70;33.70
820;DHT22;392;48.838;2.322;2023-06-19T08:05:18;25.90;32.80
820;DHT22;392;48.838;2.322;2023-06-19T08:07:45;26.20;31.50
820;DHT22;392;48.838;2.322;2023-06-19T08:10:13;26.50;29.60
820;DHT22;392;48.838;2.322;2023-06-19T08:12:42;26.50;29.50
820;DHT22;392;48.838;2.322;2023-06-19T08:15:10;26.60;29.60
820;DHT22;392;48.838;2.322;2023-06-19T08:17:39;26.90;28.40
820;DHT22;392;48.838;2.322;2023-06-19T08:20:07;27.20;27.80
820;DHT22;392;48.838;2.322;2023-06-19T08:22:35;27.50;26.70
820;DHT22;392;48.838;2.322;2023-06-19T08:25:03;27.80;25.80
820;DHT22;392;48.838;2.322;2023-06-19T08:27:31;27.80;26.00
820;DHT22;392;48.838;2.322;2023-06-19T08:30:00;28.10;25.10
820;DHT22;392;48.838;2.322;2023-06-19T08:32:28;28.30;24.10
820;DHT22;392;48.838;2.322;2023-06-19T08:34:55;28.50;23.10
820;DHT22;392;48.838;2.322;2023-06-19T08:37:22;28.40;23.00
820;DHT22;392;48.838;2.322;2023-06-19T08:39:49;28.50;22.40
820;DHT22;392;48.838;2.322;2023-06-19T08:42:17;28.50;21.80
820;DHT22;392;48.838;2.322;2023-06-19T08:44:44;28.40;22.30
820;DHT22;392;48.838;2.322;2023-06-19T08:47:13;28.40;22.90
820;DHT22;392;48.838;2.322;2023-06-19T08:49:40;28.40;23.20
820;DHT22;392;48.838;2.322;2023-06-19T08:52:08;28.40;21.80
820;DHT22;392;48.838;2.322;2023-06-19T08:54:35;28.50;22.40
820;DHT22;392;48.838;2.322;2023-06-19T08:57:10;28.90;21.50
820;DHT22;392;48.838;2.322;2023-06-19T08:59:37;29.30;20.30
820;DHT22;392;48.838;2.322;2023-06-19T09:02:06;29.60;19.80
820;DHT22;392;48.838;2.322;2023-06-19T09:04:35;29.70;19.60
820;DHT22;392;48.838;2.322;2023-06-19T09:07:03;29.90;19.10
820;DHT22;392;48.838;2.322;2023-06-19T09:09:44;30.40;18.00
820;DHT22;392;48.838;2.322;2023-06-19T09:12:13;31.00;16.00
820;DHT22;392;48.838;2.322;2023-06-19T09:14:45;30.80;16.80
820;DHT22;392;48.838;2.322;2023-06-19T09:17:16;30.50;16.90
820;DHT22;392;48.838;2.322;2023-06-19T09:19:49;30.00;17.60
820;DHT22;392;48.838;2.322;2023-06-19T09:22:18;29.90;18.00
820;DHT22;392;48.838;2.322;2023-06-19T09:24:48;29.80;17.80
820;DHT22;392;48.838;2.322;2023-06-19T09:27:17;30.00;17.60
820;DHT22;392;48.838;2.322;2023-06-19T09:29:48;30.30;17.00
820;DHT22;392;48.838;2.322;2023-06-19T09:32:17;30.80;16.10
820;DHT22;392;48.838;2.322;2023-06-19T09:34:48;31.10;14.80
820;DHT22;392;48.838;2.322;2023-06-19T09:37:19;30.70;16.40
820;DHT22;392;48.838;2.322;2023-06-19T09:39:53;30.80;15.60
820;DHT22;392;48.838;2.322;2023-06-19T09:42:27;31.20;15.60
820;DHT22;392;48.838;2.322;2023-06-19T09:44:59;31.50;14.90
820;DHT22;392;48.838;2.322;2023-06-19T09:47:31;30.50;15.60
820;DHT22;392;48.838;2.322;2023-06-19T09:50:02;30.00;15.90
820;DHT22;392;48.838;2.322;2023-06-19T09:52:30;29.80;16.80
820;DHT22;392;48.838;2.322;2023-06-19T09:55:04;29.90;16.50
820;DHT22;392;48.838;2.322;2023-06-19T09:57:35;30.30;16.00
820;DHT22;392;48.838;2.322;2023-06-19T10:00:05;30.90;16.10
820;DHT22;392;48.838;2.322;2023-06-19T10:02:39;31.50;15.10
820;DHT22;392;48.838;2.322;2023-06-19T10:05:09;31.60;14.20
820;DHT22;392;48.838;2.322;2023-06-19T10:07:41;31.50;13.70
820;DHT22;392;48.838;2.322;2023-06-19T10:10:12;31.60;13.30
820;DHT22;392;48.838;2.322;2023-06-19T10:12:49;32.00;13.70
820;DHT22;392;48.838;2.322;2023-06-19T10:15:18;32.20;12.40
820;DHT22;392;48.838;2.322;2023-06-19T10:17:48;32.10;13.30
820;DHT22;392;48.838;2.322;2023-06-19T10:20:25;31.70;14.00
820;DHT22;392;48.838;2.322;2023-06-19T10:22:58;31.30;13.50
820;DHT22;392;48.838;2.322;2023-06-19T10:25:31;31.10;14.70
820;DHT22;392;48.838;2.322;2023-06-19T10:28:00;31.00;14.80
820;DHT22;392;48.838;2.322;2023-06-19T10:30:28;31.10;14.40
820;DHT22;392;48.838;2.322;2023-06-19T10:32:59;30.70;15.00
820;DHT22;392;48.838;2.322;2023-06-19T10:35:37;30.30;13.90
820;DHT22;392;48.838;2.322;2023-06-19T10:38:06;30.10;14.20
820;DHT22;392;48.838;2.322;2023-06-19T10:40:35;29.60;15.10
820;DHT22;392;48.838;2.322;2023-06-19T10:43:03;29.10;16.50
820;DHT22;392;48.838;2.322;2023-06-19T10:45:31;28.70;18.40
820;DHT22;392;48.838;2.322;2023-06-19T10:48:01;28.80;17.60
820;DHT22;392;48.838;2.322;2023-06-19T10:50:30;29.30;16.10
820;DHT22;392;48.838;2.322;2023-06-19T10:53:01;29.70;15.70
820;DHT22;392;48.838;2.322;2023-06-19T10:55:29;30.30;15.00
820;DHT22;392;48.838;2.322;2023-06-19T10:57:57;30.40;13.70
820;DHT22;392;48.838;2.322;2023-06-19T11:00:26;30.20;13.90
820;DHT22;392;48.838;2.322;2023-06-19T11:02:55;30.00;14.60
820;DHT22;392;48.838;2.322;2023-06-19T11:05:23;29.80;15.70
820;DHT22;392;48.838;2.322;2023-06-19T11:07:54;30.30;16.10
820;DHT22;392;48.838;2.322;2023-06-19T11:10:23;31.00;12.90
820;DHT22;392;48.838;2.322;2023-06-19T11:12:54;31.70;13.30
820;DHT22;392;48.838;2.322;2023-06-19T11:15:28;32.00;13.10
820;DHT22;392;48.838;2.322;2023-06-19T11:17:56;32.60;12.80
820;DHT22;392;48.838;2.322;2023-06-19T11:20:24;33.10;12.00
820;DHT22;392;48.838;2.322;2023-06-19T11:22:57;33.60;8.40
820;DHT22;392;48.838;2.322;2023-06-19T11:25:35;33.50;8.30
820;DHT22;392;48.838;2.322;2023-06-19T11:28:03;32.90;9.60
820;DHT22;392;48.838;2.322;2023-06-19T11:30:32;33.00;11.30
820;DHT22;392;48.838;2.322;2023-06-19T11:33:01;32.80;10.10
820;DHT22;392;48.838;2.322;2023-06-19T11:35:33;32.30;9.90
820;DHT22;392;48.838;2.322;2023-06-19T11:38:03;32.00;11.10
820;DHT22;392;48.838;2.322;2023-06-19T11:40:39;31.70;12.20
820;DHT22;392;48.838;2.322;2023-06-19T11:43:07;31.00;11.80
820;DHT22;392;48.838;2.322;2023-06-19T11:45:45;30.50;13.40
820;DHT22;392;48.838;2.322;2023-06-19T11:48:14;30.30;13.30
820;DHT22;392;48.838;2.322;2023-06-19T11:50:41;30.30;15.50
820;DHT22;392;48.838;2.322;2023-06-19T11:53:11;30.20;13.70
820;DHT22;392;48.838;2.322;2023-06-19T11:55:39;30.20;14.70
820;DHT22;392;48.838;2.322;2023-06-19T11:58:06;30.10;14.30
820;DHT22;392;48.838;2.322;2023-06-19T12:00:33;30.00;16.30
820;DHT22;392;48.838;2.322;2023-06-19T12:03:00;29.80;15.10
820;DHT22;392;48.838;2.322;2023-06-19T12:05:28;29.70;15.80
820;DHT22;392;48.838;2.322;2023-06-19T12:07:55;29.60;15.30
820;DHT22;392;48.838;2.322;2023-06-19T12:10:25;29.40;15.50
820;DHT22;392;48.838;2.322;2023-06-19T12:12:52;29.20;17.20
820;DHT22;392;48.838;2.322;2023-06-19T12:15:19;29.10;17.10
820;DHT22;392;48.838;2.322;2023-06-19T12:17:47;28.90;16.50
820;DHT22;392;48.838;2.322;2023-06-19T12:20:15;28.60;16.80
820;DHT22;392;48.838;2.322;2023-06-19T12:22:42;28.50;17.60
820;DHT22;392;48.838;2.322;2023-06-19T12:25:10;28.50;17.50
820;DHT22;392;48.838;2.322;2023-06-19T12:27:39;28.40;19.00
820;DHT22;392;48.838;2.322;2023-06-19T12:30:08;28.40;19.40
820;DHT22;392;48.838;2.322;2023-06-19T12:32:35;28.50;20.10
820;DHT22;392;48.838;2.322;2023-06-19T12:35:03;28.50;19.10
820;DHT22;392;48.838;2.322;2023-06-19T12:37:32;28.40;19.60
820;DHT22;392;48.838;2.322;2023-06-19T12:39:59;28.30;18.30
820;DHT22;392;48.838;2.322;2023-06-19T12:42:27;28.20;18.20
820;DHT22;392;48.838;2.322;2023-06-19T12:44:55;28.20;19.30
820;DHT22;392;48.838;2.322;2023-06-19T12:47:22;28.30;19.70
820;DHT22;392;48.838;2.322;2023-06-19T12:49:50;28.30;20.20
820;DHT22;392;48.838;2.322;2023-06-19T12:52:17;28.20;19.40
820;DHT22;392;48.838;2.322;2023-06-19T12:54:44;27.80;20.00
820;DHT22;392;48.838;2.322;2023-06-19T12:57:12;27.70;20.60
820;DHT22;392;48.838;2.322;2023-06-19T12:59:39;27.60;20.60
820;DHT22;392;48.838;2.322;2023-06-19T13:02:08;27.60;20.60
820;DHT22;392;48.838;2.322;2023-06-19T13:04:36;27.60;21.70
820;DHT22;392;48.838;2.322;2023-06-19T13:07:04;27.50;21.00
820;DHT22;392;48.838;2.322;2023-06-19T13:09:31;27.50;22.20
820;DHT22;392;48.838;2.322;2023-06-19T13:11:59;27.30;24.30
820;DHT22;392;48.838;2.322;2023-06-19T13:14:26;27.10;26.80
820;DHT22;392;48.838;2.322;2023-06-19T13:16:53;27.10;28.80
820;DHT22;392;48.838;2.322;2023-06-19T13:19:27;27.00;26.10
820;DHT22;392;48.838;2.322;2023-06-19T13:21:54;26.90;26.00
820;DHT22;392;48.838;2.322;2023-06-19T13:24:22;26.90;26.60
820;DHT22;392;48.838;2.322;2023-06-19T13:26:49;27.00;25.80
820;DHT22;392;48.838;2.322;2023-06-19T13:29:16;27.20;25.40
820;DHT22;392;48.838;2.322;2023-06-19T13:31:44;27.20;24.60
820;DHT22;392;48.838;2.322;2023-06-19T13:34:11;27.30;24.70
820;DHT22;392;48.838;2.322;2023-06-19T13:36:39;27.40;25.60
820;DHT22;392;48.838;2.322;2023-06-19T13:39:07;27.50;24.80
820;DHT22;392;48.838;2.322;2023-06-19T13:41:34;27.40;24.20
820;DHT22;392;48.838;2.322;2023-06-19T13:44:02;27.20;24.60
820;DHT22;392;48.838;2.322;2023-06-19T13:46:29;27.00;27.20
820;DHT22;392;48.838;2.322;2023-06-19T13:48:57;27.00;27.20
820;DHT22;392;48.838;2.322;2023-06-19T13:51:26;26.90;27.50
820;DHT22;392;48.838;2.322;2023-06-19T13:53:55;27.00;26.30
820;DHT22;392;48.838;2.322;2023-06-19T13:56:22;26.90;25.90
820;DHT22;392;48.838;2.322;2023-06-19T13:58:50;26.90;27.00
820;DHT22;392;48.838;2.322;2023-06-19T14:01:17;26.90;27.60
820;DHT22;392;48.838;2.322;2023-06-19T14:03:45;26.90;27.00
820;DHT22;392;48.838;2.322;2023-06-19T14:06:12;26.80;27.30
820;DHT22;392;48.838;2.322;2023-06-19T14:08:39;26.80;27.70
820;DHT22;392;48.838;2.322;2023-06-19T14:11:08;26.60;28.10
820;DHT22;392;48.838;2.322;2023-06-19T14:13:35;26.60;28.60
820;DHT22;392;48.838;2.322;2023-06-19T14:16:03;26.60;28.50
820;DHT22;392;48.838;2.322;2023-06-19T14:18:30;26.60;28.90
820;DHT22;392;48.838;2.322;2023-06-19T14:20:57;26.60;29.00
820;DHT22;392;48.838;2.322;2023-06-19T14:23:25;26.60;28.50
820;DHT22;392;48.838;2.322;2023-06-19T14:25:52;26.60;28.50
820;DHT22;392;48.838;2.322;2023-06-19T14:28:21;26.70;29.10
820;DHT22;392;48.838;2.322;2023-06-19T14:30:48;26.80;28.60
820;DHT22;392;48.838;2.322;2023-06-19T14:33:16;26.90;27.90
820;DHT22;392;48.838;2.322;2023-06-19T14:35:43;27.00;28.00
820;DHT22;392;48.838;2.322;2023-06-19T14:38:12;27.10;27.10
820;DHT22;392;48.838;2.322;2023-06-19T14:40:40;26.90;27.20
820;DHT22;392;48.838;2.322;2023-06-19T14:43:08;27.00;27.50
820;DHT22;392;48.838;2.322;2023-06-19T14:45:37;27.10;26.90
820;DHT22;392;48.838;2.322;2023-06-19T14:48:05;27.20;26.90
820;DHT22;392;48.838;2.322;2023-06-19T14:50:33;27.20;25.90
820;DHT22;392;48.838;2.322;2023-06-19T14:53:01;27.10;27.20
820;DHT22;392;48.838;2.322;2023-06-19T14:55:28;27.10;27.40
820;DHT22;392;48.838;2.322;2023-06-19T14:57:55;27.20;26.70
820;DHT22;392;48.838;2.322;2023-06-19T15:00:22;27.20;26.40
820;DHT22;392;48.838;2.322;2023-06-19T15:02:51;27.20;25.30
820;DHT22;392;48.838;2.322;2023-06-19T15:05:19;27.20;25.50
820;DHT22;392;48.838;2.322;2023-06-19T15:07:46;27.20;25.40
820;DHT22;392;48.838;2.322;2023-06-19T15:10:13;27.10;26.70
820;DHT22;392;48.838;2.322;2023-06-19T15:12:40;27.10;26.00
820;DHT22;392;48.838;2.322;2023-06-19T15:15:08;27.10;26.30
820;DHT22;392;48.838;2.322;2023-06-19T15:17:36;27.10;25.90
820;DHT22;392;48.838;2.322;2023-06-19T15:20:07;27.10;26.30
820;DHT22;392;48.838;2.322;2023-06-19T15:22:35;27.00;27.20
820;DHT22;392;48.838;2.322;2023-06-19T15:25:02;27.00;27.70
820;DHT22;392;48.838;2.322;2023-06-19T15:27:30;26.80;28.60
820;DHT22;392;48.838;2.322;2023-06-19T15:29:57;26.60;29.50
820;DHT22;392;48.838;2.322;2023-06-19T15:32:24;26.50;31.10
820;DHT22;392;48.838;2.322;2023-06-19T15:34:52;26.40;32.10
820;DHT22;392;48.838;2.322;2023-06-19T15:37:21;26.40;31.10
820;DHT22;392;48.838;2.322;2023-06-19T15:39:48;26.40;32.50
820;DHT22;392;48.838;2.322;2023-06-19T15:42:17;26.40;32.40
820;DHT22;392;48.838;2.322;2023-06-19T15:44:45;26.30;32.60
820;DHT22;392;48.838;2.322;2023-06-19T15:47:12;26.20;33.00
820;DHT22;392;48.838;2.322;2023-06-19T15:49:39;26.20;33.40
820;DHT22;392;48.838;2.322;2023-06-19T15:52:06;26.20;32.00
820;DHT22;392;48.838;2.322;2023-06-19T15:54:35;26.10;31.30
820;DHT22;392;48.838;2.322;2023-06-19T15:57:04;26.00;31.50
820;DHT22;392;48.838;2.322;2023-06-19T15:59:31;26.00;31.30
820;DHT22;392;48.838;2.322;2023-06-19T16:01:58;25.90;30.40
820;DHT22;392;48.838;2.322;2023-06-19T16:04:26;25.80;30.10
820;DHT22;392;48.838;2.322;2023-06-19T16:06:53;25.80;31.80
820;DHT22;392;48.838;2.322;2023-06-19T16:09:21;25.70;31.60
820;DHT22;392;48.838;2.322;2023-06-19T16:11:49;25.80;31.20
820;DHT22;392;48.838;2.322;2023-06-19T16:14:17;25.70;31.40
820;DHT22;392;48.838;2.322;2023-06-19T16:16:44;25.70;32.40
820;DHT22;392;48.838;2.322;2023-06-19T16:19:11;25.60;32.60
820;DHT22;392;48.838;2.322;2023-06-19T16:21:38;25.70;32.30
820;DHT22;392;48.838;2.322;2023-06-19T16:24:06;25.60;32.70
820;DHT22;392;48.838;2.322;2023-06-19T16:26:34;25.70;32.20
820;DHT22;392;48.838;2.322;2023-06-19T16:29:03;25.80;32.00
820;DHT22;392;48.838;2.322;2023-06-19T16:31:30;25.90;31.10
820;DHT22;392;48.838;2.322;2023-06-19T16:33:58;26.00;31.00
820;DHT22;392;48.838;2.322;2023-06-19T16:36:25;26.00;31.20
820;DHT22;392;48.838;2.322;2023-06-19T16:38:53;26.00;31.70
820;DHT22;392;48.838;2.322;2023-06-19T16:41:20;26.00;31.60